Latest Coastal Weather Observations for Portland Airport

IDS60701

Issued at 6:11 am CDT Sunday 14 February 2016 (issued every 10 minutes, with the page automatically refreshed every 10 minutes)

About coastal observations | Map of coastal stations | Coastal observations for SA | Marine services | Other Formats
Station Details ID: 090171 Name: CASHMORE AIRPORT Lat: -38.31 Lon: 141.47 Height: 80.9 m
Data from the previous 72 hours. | See also: Recent months at Portland Airport
Date/Time
CDT
Temp

°C
Wind Pressure Rain
since 9am
mm
Weather Cloud Vis
km
Sea
Height
m
Swell
Dir
 
Speed
knots
Gust
knots
hPa Trend Height
m
Period
s
Dir
14/06:00am 14.9 W 9 12 1010.6 - 0.6 - Partly cloudy 10 - - - -
14/05:30am 14.9 W 9 13 1010.2 - 0.6 - Mostly cloudy 10 - - - -
14/05:00am 15.7 W 9 14 1010.1 - 0.6 - Partly cloudy 10 - - - -
14/04:30am 15.7 W 9 12 1009.8 - 0.6 - Cloudy 10 - - - -
14/04:00am 15.1 W 9 12 1009.8 - 0.6 - Partly cloudy 10 - - - -
14/03:30am 14.9 WSW 10 13 1009.9 - 0.6 - Partly cloudy 10 - - - -
14/03:00am 15.3 WSW 9 12 1010.1 - 0.6 - Partly cloudy 10 - - - -
14/02:30am 14.9 W 9 13 1010.3 - 0.6 - Partly cloudy 10 - - - -
14/02:00am 14.9 W 7 9 1010.4 - 0.6 - Partly cloudy 10 - - - -
14/01:30am 14.8 WNW 7 10 1010.5 - 0.6 - Partly cloudy 10 - - - -
14/01:00am 15.3 WNW 10 13 1010.5 - 0.4 - Partly cloudy 10 - - - -
14/12:30am 12.2 NW 6 8 1010.6 - 0.4 - Partly cloudy 10 - - - -
14/12:00am 12.1 WNW 4 5 1010.9 - 0.4 - - 10 - - - -
 
Date/Time
CDT
Temp

°C
Wind Pressure Rain
since 9am
mm
Weather Cloud Vis
km
Sea
Height
m
Swell
Dir
 
Speed
knots
Gust
knots
hPa Trend Height
m
Period
s
Dir
13/11:30pm 13.1 WNW 5 6 1011.0 - 0.4 - - 10 - - - -
13/11:00pm 14.2 WNW 6 9 1011.3 - 0.4 - - 10 - - - -
13/10:30pm 14.4 W 7 9 1011.7 - 0.4 - - 10 - - - -
13/10:00pm 15.1 W 9 12 1011.7 - 0.4 - Partly cloudy 10 - - - -
13/09:30pm 16.0 WSW 10 15 1011.4 - 0.4 - Partly cloudy 10 - - - -
13/09:00pm 16.1 W 10 14 1011.3 - 0.4 - Partly cloudy 10 - - - -
13/08:30pm 16.7 W 10 14 1011.0 - 0.4 - Cloudy 10 - - - -
13/08:00pm 16.5 WSW 10 13 1010.7 - 0.4 - Partly cloudy 10 - - - -
13/07:30pm 17.4 WSW 10 17 1010.3 - 0.4 - Partly cloudy 10 - - - -
13/07:00pm 17.4 WSW 10 13 1010.1 - 0.4 - Partly cloudy 10 - - - -
13/06:30pm 16.9 WSW 10 12 1010.0 - 0.4 - Partly cloudy 10 - - - -
13/06:17pm 16.7 W 9 12 1009.9 - 0.4 - Partly cloudy 10 - - - -
13/06:02pm 17.0 W 7 9 1009.8 - 0.4 - Partly cloudy 8 - - - -
13/06:00pm 17.2 W 7 9 1009.8 - 0.4 - Partly cloudy 7 - - - -
13/05:30pm 16.9 WSW 13 20 1009.8 - 0.4 Rain Cloudy 2 - - - -
13/05:17pm 18.1 W 12 15 1009.7 - 0.0 - Partly cloudy 6 - - - -
13/05:08pm 18.9 W 11 16 1009.4 - 0.0 - Partly cloudy 10 - - - -
13/05:00pm 19.0 W 12 16 1009.6 - 0.0 - Partly cloudy 10 - - - -
13/04:30pm 19.9 W 15 19 1009.2 - 0.0 - Partly cloudy 10 - - - -
13/04:11pm 20.4 WSW 15 22 1009.2 - 0.0 - Partly cloudy 10 - - - -
13/04:00pm 20.4 WSW 13 20 1009.2 - 0.0 - Partly cloudy 10 - - - -
13/03:30pm 20.8 WSW 15 20 1009.2 - 0.0 - Partly cloudy 10 - - - -
13/03:11pm 20.3 W 18 24 1009.2 - 0.0 - Partly cloudy 10 - - - -
13/03:00pm 21.1 W 18 24 1009.2 - 0.0 - Partly cloudy 10 - - - -
13/02:30pm 21.7 W 18 22 1009.3 - 0.0 - Cloudy 10 - - - -
13/02:00pm 22.1 W 18 24 1009.4 - 0.0 - Partly cloudy 10 - - - -
13/01:30pm 23.1 WNW 14 19 1009.3 - 0.0 - - 10 - - - -
13/01:00pm 21.6 W 16 21 1009.9 - 0.0 - Partly cloudy 10 - - - -
13/12:30pm 22.0 W 14 19 1010.0 - 0.0 - - 10 - - - -
13/12:00pm 21.2 WNW 13 20 1010.0 - 0.0 - - 10 - - - -
13/11:30am 21.2 WNW 12 17 1009.9 - 0.0 - Partly cloudy 10 - - - -
13/11:00am 20.9 WNW 12 16 1009.8 - 0.0 - Partly cloudy 10 - - - -
13/10:30am 20.7 WNW 11 16 1009.8 - 0.0 - Partly cloudy 10 - - - -
13/10:00am 20.2 W 11 16 1009.8 - 0.0 - Partly cloudy 10 - - - -
13/09:30am 19.5 WNW 11 16 1009.8 - 0.0 - Partly cloudy 10 - - - -
13/09:00am 18.5 WNW 9 11 1009.9 - 0.0 - - 10 - - - -
13/08:30am 17.5 WNW 7 9 1009.9 - 0.0 - Mostly clear 10 - - - -
13/08:00am 16.7 WNW 7 10 1009.9 - 0.0 - - 10 - - - -
13/07:30am 15.9 W 4 6 1009.8 - 0.0 - Partly cloudy 10 - - - -
13/07:24am 15.5 W 3 4 1009.7 - 0.0 - Partly cloudy 10 - - - -
13/07:00am 15.1 WNW 3 5 1009.4 - 0.0 - Partly cloudy 10 - - - -
13/06:52am 14.5 WNW 3 4 1009.3 - 0.0 - Partly cloudy 10 - - - -
13/06:30am 14.6 NW 4 6 1008.9 - 0.0 - Partly cloudy 10 - - - -
13/06:29am 14.6 NW 4 6 1008.9 - 0.0 - Partly cloudy 10 - - - -
13/06:00am 14.2 WNW 3 5 1008.7 - 0.0 - Partly cloudy 10 - - - -
13/05:41am 14.1 WNW 4 5 1008.7 - 0.0 - Partly cloudy 10 - - - -
13/05:30am 14.2 WNW 4 5 1008.7 - 0.0 - Cloudy 9 - - - -
13/05:15am 14.1 W 5 7 1008.7 - 0.0 - - 7 - - - -
13/05:00am 14.2 W 5 7 1008.9 - 0.0 - - 6 - - - -
13/04:40am 14.6 W 6 10 1008.6 - 0.0 - - 6 - - - -
13/04:30am 15.2 W 8 11 1008.6 - 0.0 - - 9 - - - -
13/04:00am 16.3 WNW 6 9 1008.4 - 0.0 - - 10 - - - -
13/03:30am 16.1 NNW 4 7 1008.6 - 0.0 - - 10 - - - -
13/03:00am 13.9 NNW 3 5 1008.8 - 0.0 - - 10 - - - -
13/02:30am 14.9 N 6 7 1008.8 - 0.0 - - 10 - - - -
13/02:00am 14.7 N 7 8 1009.3 - 0.0 - - 10 - - - -
13/01:30am 13.7 N 5 6 1009.7 - 0.0 - - 10 - - - -
13/01:00am 14.3 NE 5 7 1009.9 - 0.0 - - 10 - - - -
13/12:30am 13.9 NE 5 7 1010.3 - 0.0 - - 10 - - - -
13/12:00am 13.5 NE 5 5 1010.5 - 0.0 - - 10 - - - -
 
Date/Time
CDT
Temp

°C
Wind Pressure Rain
since 9am
mm
Weather Cloud Vis
km
Sea
Height
m
Swell
Dir
 
Speed
knots
Gust
knots
hPa Trend Height
m
Period
s
Dir
12/11:30pm 13.7 NE 5 6 1010.5 - 0.0 - - 10 - - - -
12/11:00pm 13.9 NE 5 6 1010.7 - 0.0 - - 10 - - - -
12/10:30pm 14.0 NE 4 5 1011.3 - 0.0 - - 10 - - - -
12/10:00pm 14.6 NE 5 6 1011.4 - 0.0 - - 10 - - - -
12/09:30pm 15.4 NE 5 7 1011.5 - 0.0 - - 10 - - - -
12/09:00pm 15.7 ENE 4 5 1011.8 - 0.0 - - 10 - - - -
12/08:30pm 16.6 ENE 2 4 1011.9 - 0.0 - - 10 - - - -
12/08:00pm 17.9 E 5 7 1011.9 - 0.0 - - 10 - - - -
12/07:30pm 19.1 SE 7 10 1011.9 - 0.0 - - 10 - - - -
12/07:00pm 19.8 SE 7 10 1012.0 - 0.0 - - 10 - - - -
12/06:30pm 20.7 ESE 7 9 1012.0 - 0.0 - - 10 - - - -
12/06:00pm 21.1 ESE 7 11 1012.0 - 0.0 - - 10 - - - -
12/05:30pm 21.8 ESE 8 12 1012.0 - 0.0 - - 10 - - - -
12/05:00pm 22.3 S 8 12 1012.2 - 0.0 - - 10 - - - -
12/04:30pm 22.1 SSE 9 12 1012.6 - 0.0 - - 10 - - - -
12/04:00pm 23.6 ESE 7 11 1012.8 - 0.0 - - 10 - - - -
12/03:30pm 23.4 ESE 8 11 1013.0 - 0.0 - - 10 - - - -
12/03:00pm 22.6 SE 9 13 1013.4 - 0.0 - - 10 - - - -
12/02:30pm 23.1 ESE 11 17 1013.5 - 0.0 - - 10 - - - -
12/02:00pm 23.8 E 7 10 1013.9 - 0.0 - - 10 - - - -
12/01:30pm 24.3 ESE 7 12 1014.1 - 0.0 - - 10 - - - -
12/01:00pm 23.3 ENE 6 10 1014.5 - 0.0 - - 10 - - - -
12/12:30pm 22.8 ENE 6 10 1014.8 - 0.0 - - 10 - - - -
12/12:00pm 22.5 E 6 12 1015.2 - 0.0 - - 10 - - - -
12/11:30am 21.4 E 7 14 1015.7 - 0.0 - Mostly clear 10 - - - -
12/11:00am 20.7 ESE 8 12 1016.1 - 0.0 - Partly cloudy 10 - - - -
12/10:30am 21.4 E 7 10 1016.3 - 0.0 - Partly cloudy 10 - - - -
12/10:00am 20.3 ESE 8 12 1016.5 - 0.0 - Partly cloudy 10 - - - -
12/09:30am 20.1 E 7 11 1016.9 - 0.0 - Partly cloudy 10 - - - -
12/09:00am 18.6 E 7 10 1016.8 - 0.0 - Partly cloudy 10 - - - -
12/08:30am 17.9 E 7 12 1016.9 - 0.0 - Partly cloudy 10 - - - -
12/08:00am 16.6 E 5 8 1016.6 - 0.0 - - 10 - - - -
12/07:30am 12.9 E 3 4 1016.5 - 0.0 - - 10 - - - -
12/07:00am 10.4 CALM 0 0 1016.5 - 0.0 - - 10 - - - -
12/06:40am 10.5 CALM 0 0 1016.5 - 0.0 - - 10 - - - -
12/06:30am 10.5 CALM 0 0 1016.5 - 0.0 - - 6 - - - -
12/06:28am 10.5 CALM 0 0 1016.5 - 0.0 - - 6 - - - -
12/06:00am 12.4 E 3 4 1016.1 - 0.0 - Partly cloudy 10 - - - -
12/05:30am 12.7 E 4 5 1016.0 - 0.0 - - 10 - - - -
12/05:00am 13.5 E 5 6 1016.1 - 0.0 - Partly cloudy 10 - - - -
12/04:30am 13.3 ESE 5 6 1016.1 - 0.0 - Partly cloudy 10 - - - -
12/04:00am 13.4 ESE 4 5 1016.4 - 0.0 - - 10 - - - -
12/03:30am 14.2 SE 5 7 1016.6 - 0.0 - Partly cloudy 10 - - - -
12/03:00am 14.9 SE 6 8 1017.0 - 0.0 - Partly cloudy 10 - - - -
12/02:30am 15.3 ESE 6 10 1017.0 - 0.0 - Mostly clear 10 - - - -
12/02:00am 15.9 SE 6 9 1017.3 - 0.0 - Partly cloudy 10 - - - -
12/01:30am 14.3 ESE 5 7 1017.5 - 0.0 - Partly cloudy 10 - - - -
12/01:00am 14.1 ESE 4 6 1017.8 - 0.0 - Partly cloudy 10 - - - -
12/12:30am 15.0 SE 6 7 1018.0 - 0.0 - Partly cloudy 10 - - - -
12/12:00am 15.1 SE 5 7 1018.3 - 0.0 - Partly cloudy 10 - - - -
 
Date/Time
CDT
Temp

°C
Wind Pressure Rain
since 9am
mm
Weather Cloud Vis
km
Sea
Height
m
Swell
Dir
 
Speed
knots
Gust
knots
hPa Trend Height
m
Period
s
Dir
11/11:30pm 15.2 ESE 5 6 1018.3 - 0.0 - Cloudy 10 - - - -
11/11:00pm 15.4 SE 4 6 1018.7 - 0.0 - - 10 - - - -
11/10:30pm 15.9 SE 5 8 1018.8 - 0.0 - - 10 - - - -
11/10:00pm 16.4 SE 7 9 1018.6 - 0.0 - - 10 - - - -
11/09:30pm 16.4 SE 6 9 1018.3 - 0.0 - - 10 - - - -
11/09:00pm 16.8 SE 6 8 1018.0 - 0.0 - - 10 - - - -
11/08:30pm 17.4 SE 7 11 1018.0 - 0.0 - Partly cloudy 10 - - - -
11/08:00pm 18.0 SE 9 13 1017.9 - 0.0 - Partly cloudy 10 - - - -
11/07:30pm 18.5 SE 11 15 1017.9 - 0.0 - Partly cloudy 10 - - - -
11/07:00pm 19.2 SE 10 14 1017.5 - 0.0 - Partly cloudy 10 - - - -
11/06:30pm 19.3 SSE 10 16 1017.4 - 0.0 - Partly cloudy 10 - - - -
11/06:00pm 19.4 SSE 10 14 1017.3 - 0.0 - - 10 - - - -
11/05:30pm 20.8 S 10 16 1017.0 - 0.0 - Partly cloudy 10 - - - -
11/05:00pm 20.3 SE 10 14 1016.6 - 0.0 - Partly cloudy 10 - - - -
11/04:30pm 22.3 SSE 10 15 1016.5 - 0.0 - Partly cloudy 10 - - - -
11/04:00pm 22.9 SSE 10 15 1016.9 - 0.0 - Partly cloudy 10 - - - -
11/03:30pm 21.3 S 10 15 1016.9 - 0.0 - Partly cloudy 10 - - - -
11/03:00pm 22.2 SSE 11 16 1017.0 - 0.0 - Partly cloudy 10 - - - -
11/02:30pm 21.6 SSE 10 15 1017.0 - 0.0 - Partly cloudy 10 - - - -
11/02:00pm 21.8 SSE 9 16 1017.3 - 0.0 - Partly cloudy 10 - - - -
11/01:30pm 20.8 S 10 16 1017.5 - 0.0 - Partly cloudy 10 - - - -
11/01:00pm 21.0 S 9 15 1017.5 - 0.0 - Partly cloudy 10 - - - -
11/12:30pm 21.9 SSE 9 13 1017.5 - 0.0 - Partly cloudy 10 - - - -
11/12:00pm 20.7 S 9 13 1017.6 - 0.0 - Partly cloudy 10 - - - -
11/11:30am 21.7 SE 8 13 1017.9 - 0.0 - Mostly cloudy 10 - - - -
11/11:00am 21.1 ESE 8 14 1017.7 - 0.0 - Partly cloudy 10 - - - -
11/10:30am 20.2 ESE 10 14 1017.7 - 0.0 - Partly cloudy 10 - - - -
11/10:00am 20.0 SE 8 13 1017.9 - 0.0 - Partly cloudy 10 - - - -
11/09:30am 19.5 SSE 8 11 1018.1 - 0.0 - Partly cloudy 10 - - - -
11/09:00am 18.4 S 7 11 1018.4 - 0.0 - Partly cloudy 10 - - - -
11/08:30am 17.7 S 6 9 1018.3 - 0.0 - Mostly clear 10 - - - -
11/08:00am 17.9 SE 5 7 1017.9 - 0.0 - Partly cloudy 10 - - - -
11/07:30am 15.9 SE 3 5 1017.6 - 0.0 - Partly cloudy 10 - - - -
11/07:00am 13.6 CALM 0 3 1017.4 - 0.0 - Partly cloudy 10 - - - -
11/06:34am 12.8 SE 3 4 1017.2 - 0.0 - Partly cloudy 10 - - - -
11/06:30am 12.9 SE 3 5 1017.1 - 0.0 - Partly cloudy 8 - - - -
11/06:11am 12.6 SE 2 4 1017.1 - 0.0 - - 6 - - - -
11/06:10am 12.7 SE 2 4 1017.1 - 0.0 - - 8 - - - -
11/06:00am 12.6 SE 3 4 1016.9 - 0.0 - - 6 - - - -

Other Formats:

Comma delimited format used in spreadsheet applications
http://www.bom.gov.au/fwo/IDS60701/IDS60701.94828.axf

JavaScript Object Notation format (JSON) in row-major order
http://www.bom.gov.au/fwo/IDS60701/IDS60701.94828.json